»·PEaware :: N374SA KBFL-KMHV

N374SA :: KBFL-KMHV

FLIGHT INFORMATION

Flight Status: Arrived
Operator: Privately registered:
United States
More flights under this callsign
Pilot: Michael S. (17605)
Aircraft: CESSNA 172 SKYHAWK
(C172)
More flights by this aircraft type
Origin: KBFL Meadows
United States
Destination: KMHV Mojave
United States
More flights between these airports :: More routes between these airports
Route: +DIRECT
File this flight plan on PilotEdge
Remarks: Cat-6 rating
Altitude:
(Current/Filed)
5,500ft
Speed:
(Current/Filed)
115kts
Departed: 02-Jan-18 03:17 PM
Arrived: 02-Jan-18 03:51 PM
Distance/Time
Traveled:
50nm/0:34
Distance/Time
To Go:
Arrived

Flight Plot

Page will automatically refresh every two minutes.


Map Options




Map Legend


Flown Route
Filed Route
Departure Airport
Arrival Airport
Navaid (VOR, NDB)
Fix

Horizontal Profiles

Position Reports

Time Latitude Longitude Heading Altitude Ground
Speed
02-Jan-18 14:57 35.437595 -119.055125 139 510ft 0kts
02-Jan-18 14:58 35.437595 -119.055125 139 510ft 0kts
02-Jan-18 14:59 35.437595 -119.055125 139 510ft 0kts
02-Jan-18 15:00 35.437595 -119.055125 139 510ft 0kts
02-Jan-18 15:01 35.437595 -119.055125 139 510ft 0kts
02-Jan-18 15:02 35.437595 -119.055125 139 510ft 0kts
02-Jan-18 15:03 35.437595 -119.055125 139 510ft 0kts
02-Jan-18 15:04 35.437595 -119.055125 139 510ft 0kts
02-Jan-18 15:05 35.437595 -119.055125 139 510ft 0kts
02-Jan-18 15:06 35.437595 -119.055125 139 510ft 0kts
02-Jan-18 15:07 35.437595 -119.055125 139 510ft 0kts
02-Jan-18 15:08 35.437595 -119.055125 139 510ft 0kts
02-Jan-18 15:09 35.437595 -119.055125 139 510ft 0kts
02-Jan-18 15:10 35.437595 -119.055125 139 510ft 0kts
02-Jan-18 15:11 35.437595 -119.055125 139 510ft 0kts
02-Jan-18 15:12 35.437595 -119.055125 139 510ft 0kts
02-Jan-18 15:13 35.437595 -119.055125 139 510ft 0kts
02-Jan-18 15:14 35.437595 -119.055125 139 510ft 0kts
02-Jan-18 15:15 35.437595 -119.055125 139 510ft 0kts
02-Jan-18 15:16 35.436642 -119.055397 135 510ft 16kts
02-Jan-18 15:17 35.432176 -119.052028 135 510ft 22kts
02-Jan-18 15:18 35.426373 -119.044996 135 510ft 19kts
02-Jan-18 15:19 35.426095 -119.044673 157 510ft 0kts
02-Jan-18 15:20 35.425853 -119.044667 198 510ft 5kts
02-Jan-18 15:21 35.425707 -119.044678 175 510ft 0kts
02-Jan-18 15:22 35.425408 -119.045286 267 510ft 15kts
02-Jan-18 15:23 35.434781 -119.057348 315 954ft 74kts
02-Jan-18 15:24 35.452446 -119.068278 22 1876ft 75kts
02-Jan-18 15:25 35.449278 -119.043214 145 2713ft 95kts
02-Jan-18 15:26 35.432488 -119.025181 130 3298ft 98kts
02-Jan-18 15:27 35.414924 -118.994652 119 4232ft 92kts
02-Jan-18 15:28 35.404492 -118.972369 117 4897ft 89kts
02-Jan-18 15:29 35.392710 -118.945285 116 5511ft 105kts
02-Jan-18 15:30 35.375638 -118.905313 116 5496ft 117kts
02-Jan-18 15:31 35.363210 -118.875639 115 5496ft 117kts
02-Jan-18 15:32 35.348361 -118.839981 115 5496ft 117kts
02-Jan-18 15:33 35.333447 -118.804168 115 5496ft 118kts
02-Jan-18 15:34 35.318487 -118.768252 115 5473ft 118kts
02-Jan-18 15:35 35.304533 -118.734765 115 5445ft 116kts
02-Jan-18 15:36 35.290057 -118.700014 115 5414ft 114kts
02-Jan-18 15:37 35.277401 -118.669363 114 6037ft 97kts
02-Jan-18 15:38 35.265257 -118.640123 114 6736ft 95kts
02-Jan-18 15:39 35.253648 -118.612338 114 7414ft 93kts
02-Jan-18 15:40 35.239967 -118.579950 115 7356ft 110kts
02-Jan-18 15:41 35.225954 -118.546561 115 7335ft 110kts
02-Jan-18 15:42 35.212022 -118.513356 115 7312ft 111kts
02-Jan-18 15:43 35.197861 -118.479626 115 7289ft 110kts
02-Jan-18 15:44 35.183882 -118.446348 115 7289ft 109kts
02-Jan-18 15:45 35.169936 -118.413190 115 7289ft 109kts
02-Jan-18 15:46 35.155988 -118.380068 115 7289ft 109kts
02-Jan-18 15:47 35.142391 -118.347797 115 7289ft 109kts
02-Jan-18 15:48 35.128386 -118.314605 115 7292ft 109kts
02-Jan-18 15:49 35.114574 -118.281892 115 7268ft 113kts
02-Jan-18 15:50 35.098446 -118.243793 116 6575ft 131kts
02-Jan-18 15:51 35.081572 -118.203970 115 5877ft 132kts
02-Jan-18 15:52 35.065566 -118.166419 114 5451ft 90kts
02-Jan-18 15:53 35.058883 -118.138005 38 4357ft 90kts
02-Jan-18 15:54 35.072319 -118.115852 79 3774ft 69kts
02-Jan-18 15:55 35.058558 -118.110225 235 3808ft 76kts
02-Jan-18 15:56 35.059148 -118.139271 269 3014ft 72kts
02-Jan-18 15:57 35.058551 -118.149983 135 2795ft 0kts
02-Jan-18 15:58 35.057542 -118.151097 268 2795ft 22kts

Navigation Log

Ident Type
1. KBFL Airport
2. KMHV Airport